createdAt,value
2023-03-14T00:00:16.035Z,22.90
2023-03-14T00:02:44.965Z,22.77
2023-03-14T00:05:13.813Z,22.68
2023-03-14T00:07:42.902Z,22.68
2023-03-14T00:10:15.865Z,22.74
2023-03-14T00:12:45.192Z,22.57
2023-03-14T00:15:14.857Z,22.52
2023-03-14T00:17:46.239Z,22.53
2023-03-14T00:20:15.468Z,22.48
2023-03-14T00:22:44.475Z,22.46
2023-03-14T00:25:14.428Z,22.44
2023-03-14T00:27:43.236Z,22.38
2023-03-14T00:30:15.219Z,22.35
2023-03-14T00:32:44.574Z,22.38
2023-03-14T00:35:13.478Z,22.35
2023-03-14T00:37:42.674Z,22.29
2023-03-14T00:40:12.065Z,22.31
2023-03-14T00:42:41.409Z,22.28
2023-03-14T00:45:12.052Z,22.29
2023-03-14T00:47:41.248Z,22.33
2023-03-14T00:50:10.829Z,22.28
2023-03-14T00:52:41.209Z,22.28
2023-03-14T00:55:11.418Z,22.31
2023-03-14T00:57:40.208Z,22.28
2023-03-14T01:00:15.497Z,22.25
2023-03-14T01:02:48.039Z,22.20
2023-03-14T01:05:21.412Z,22.27
2023-03-14T01:07:53.009Z,22.33
2023-03-14T01:10:24.853Z,22.29
2023-03-14T01:12:57.492Z,22.26
2023-03-14T01:15:28.334Z,22.18
2023-03-14T01:17:59.487Z,22.24
2023-03-14T01:20:32.590Z,22.23
2023-03-14T01:23:02.428Z,22.24
2023-03-14T01:25:32.263Z,22.22
2023-03-14T01:28:02.787Z,22.24
2023-03-14T01:30:33.438Z,22.30
2023-03-14T01:33:03.494Z,22.26
2023-03-14T01:35:33.543Z,22.32
2023-03-14T01:38:03.575Z,22.36
2023-03-14T01:40:33.503Z,22.39
2023-03-14T01:43:16.214Z,22.47
2023-03-14T01:46:24.733Z,22.51
2023-03-14T01:49:17.585Z,22.55
2023-03-14T01:52:03.534Z,22.54
2023-03-14T01:54:38.764Z,22.57
2023-03-14T01:57:23.190Z,22.64
2023-03-14T01:59:58.966Z,22.66
2023-03-14T02:02:30.891Z,22.67
2023-03-14T02:05:02.626Z,22.75
2023-03-14T02:07:56.120Z,22.81
2023-03-14T02:10:41.900Z,22.86
2023-03-14T02:13:13.300Z,22.87
2023-03-14T02:16:03.070Z,22.75
2023-03-14T02:18:44.967Z,22.85
2023-03-14T02:21:44.786Z,22.93
2023-03-14T02:24:19.710Z,22.89
2023-03-14T02:27:18.907Z,23.07
2023-03-14T02:29:55.028Z,23.09
2023-03-14T02:32:26.458Z,23.12
2023-03-14T02:35:00.201Z,23.22
2023-03-14T02:37:38.368Z,23.29
2023-03-14T02:40:09.103Z,23.33
2023-03-14T02:42:39.749Z,23.38
2023-03-14T02:45:12.299Z,23.54
2023-03-14T02:47:56.298Z,23.59
2023-03-14T02:50:33.274Z,23.65
2023-03-14T02:53:03.385Z,23.72
2023-03-14T02:55:34.515Z,23.80
2023-03-14T02:58:10.290Z,23.84
2023-03-14T03:00:40.401Z,23.91
2023-03-14T03:03:12.895Z,24.01
2023-03-14T03:05:44.768Z,24.15
2023-03-14T03:08:14.238Z,24.20
2023-03-14T03:10:44.285Z,24.30
2023-03-14T03:13:14.220Z,24.27
2023-03-14T03:15:44.851Z,24.43
2023-03-14T03:18:14.740Z,24.52
2023-03-14T03:20:47.334Z,24.63
2023-03-14T03:23:17.370Z,24.71
2023-03-14T03:25:52.350Z,24.85
2023-03-14T03:28:22.953Z,24.92
2023-03-14T03:30:53.951Z,25.05
2023-03-14T03:33:25.824Z,25.02
2023-03-14T03:35:56.783Z,25.15
2023-03-14T03:38:32.294Z,25.35
2023-03-14T03:41:11.233Z,25.42
2023-03-14T03:43:41.808Z,25.44
2023-03-14T03:46:13.769Z,25.54
2023-03-14T03:48:43.741Z,25.49
2023-03-14T03:51:17.532Z,25.66
2023-03-14T03:53:47.597Z,25.62
2023-03-14T03:56:22.522Z,25.75
2023-03-14T03:58:53.228Z,25.79
2023-03-14T04:01:23.210Z,25.89
2023-03-14T04:03:56.914Z,25.96
2023-03-14T04:06:28.177Z,26.05
2023-03-14T04:09:00.974Z,26.23
2023-03-14T04:11:39.938Z,26.29
2023-03-14T04:14:29.398Z,26.32
2023-03-14T04:17:25.400Z,26.36
2023-03-14T04:19:56.052Z,26.46
2023-03-14T04:22:33.665Z,26.60
2023-03-14T04:25:05.574Z,26.74
2023-03-14T04:27:39.205Z,26.85
2023-03-14T04:30:17.494Z,26.96
2023-03-14T04:32:53.221Z,27.07
2023-03-14T04:35:26.448Z,27.06
2023-03-14T04:38:05.470Z,27.20
2023-03-14T04:40:38.586Z,27.21
2023-03-14T04:43:11.624Z,27.34
2023-03-14T04:45:47.429Z,27.36
2023-03-14T04:48:16.857Z,27.59
2023-03-14T04:50:45.638Z,27.71
2023-03-14T04:53:15.133Z,27.82
2023-03-14T04:55:51.776Z,27.93
2023-03-14T04:58:23.513Z,28.02
2023-03-14T05:00:53.873Z,28.15
2023-03-14T05:04:00.927Z,28.17
2023-03-14T05:06:50.123Z,28.25
2023-03-14T05:09:36.481Z,28.28
2023-03-14T05:12:43.627Z,28.47
2023-03-14T05:15:44.527Z,28.69
2023-03-14T05:18:45.111Z,28.75
2023-03-14T05:21:39.321Z,28.89
2023-03-14T05:24:37.707Z,29.03
2023-03-14T05:27:41.906Z,28.89
2023-03-14T05:30:35.568Z,29.03
2023-03-14T05:33:07.716Z,29.00
2023-03-14T05:35:55.370Z,29.12
2023-03-14T05:38:42.800Z,29.08
2023-03-14T05:41:31.865Z,29.46
2023-03-14T05:44:19.146Z,29.52
2023-03-14T05:46:57.304Z,29.62
2023-03-14T05:49:44.822Z,29.71
2023-03-14T05:52:33.796Z,29.89
2023-03-14T05:55:11.080Z,29.82
2023-03-14T05:57:56.158Z,29.89
2023-03-14T06:00:36.747Z,29.92
2023-03-14T06:03:28.789Z,29.92
2023-03-14T06:05:57.952Z,29.80
2023-03-14T06:08:27.609Z,29.66
2023-03-14T06:10:56.660Z,30.07
2023-03-14T06:13:30.536Z,30.12
2023-03-14T06:16:03.154Z,30.14
2023-03-14T06:18:32.947Z,30.47
2023-03-14T06:21:02.111Z,30.29
2023-03-14T06:23:33.665Z,30.60
2023-03-14T06:26:03.710Z,30.54
2023-03-14T06:28:33.175Z,30.68
2023-03-14T06:31:04.197Z,30.75
2023-03-14T06:33:40.380Z,30.81
2023-03-14T06:36:10.611Z,30.94
2023-03-14T06:38:43.048Z,30.75
2023-03-14T06:41:12.624Z,30.81
2023-03-14T06:43:44.594Z,31.12
2023-03-14T06:46:18.028Z,31.30
2023-03-14T06:48:50.422Z,31.04
2023-03-14T06:51:20.303Z,31.18
2023-03-14T06:53:50.509Z,31.36
2023-03-14T06:56:22.529Z,31.14
2023-03-14T06:58:52.255Z,31.46
2023-03-14T07:01:26.263Z,31.51
2023-03-14T07:03:59.491Z,31.58
2023-03-14T07:06:31.339Z,31.39
2023-03-14T07:09:01.780Z,31.72
2023-03-14T07:11:32.188Z,31.67
2023-03-14T07:14:01.506Z,31.50
2023-03-14T07:16:33.362Z,31.58
2023-03-14T07:19:03.579Z,31.63
2023-03-14T07:21:34.789Z,31.78
2023-03-14T07:24:09.635Z,32.02
2023-03-14T07:26:39.577Z,31.78
2023-03-14T07:29:08.945Z,31.87
2023-03-14T07:31:38.673Z,32.04
2023-03-14T07:34:07.983Z,32.18
2023-03-14T07:36:40.928Z,32.32
2023-03-14T07:39:10.374Z,31.93
2023-03-14T07:42:02.933Z,32.28
2023-03-14T07:44:48.594Z,32.48
2023-03-14T07:47:18.028Z,32.55
2023-03-14T07:49:47.234Z,32.56
2023-03-14T07:52:16.454Z,32.68
2023-03-14T07:54:45.281Z,32.45
2023-03-14T07:57:14.274Z,32.61
2023-03-14T07:59:43.213Z,32.59
2023-03-14T08:02:15.950Z,32.73
2023-03-14T08:04:45.377Z,32.92
2023-03-14T08:07:14.245Z,32.72
2023-03-14T08:09:43.711Z,32.62
2023-03-14T08:12:12.627Z,32.45
2023-03-14T08:14:41.525Z,32.33
2023-03-14T08:17:11.037Z,32.47
2023-03-14T08:19:40.115Z,32.27
2023-03-14T08:22:08.858Z,32.38
2023-03-14T08:24:38.000Z,32.46
2023-03-14T08:27:08.791Z,32.58
2023-03-14T08:29:38.776Z,32.57
2023-03-14T08:32:08.021Z,32.62
2023-03-14T08:34:37.205Z,32.50
2023-03-14T08:37:10.866Z,32.73
2023-03-14T08:39:45.445Z,32.64
2023-03-14T08:42:14.153Z,32.73
2023-03-14T08:44:43.632Z,32.67
2023-03-14T08:47:12.624Z,32.61
2023-03-14T08:49:44.350Z,32.75
2023-03-14T08:52:13.712Z,32.71
2023-03-14T08:54:48.989Z,32.77
2023-03-14T08:57:18.277Z,32.92
2023-03-14T08:59:46.977Z,32.83
2023-03-14T09:02:16.625Z,33.00
2023-03-14T09:04:46.501Z,32.79
2023-03-14T09:07:15.520Z,32.95
2023-03-14T09:09:44.252Z,32.79
2023-03-14T09:12:14.122Z,32.99
2023-03-14T09:14:42.786Z,32.86
2023-03-14T09:17:11.812Z,32.94
2023-03-14T09:19:40.637Z,33.09
2023-03-14T09:22:09.431Z,33.06
2023-03-14T09:24:38.520Z,33.03
2023-03-14T09:27:07.659Z,32.96
2023-03-14T09:29:39.576Z,33.01
2023-03-14T09:32:08.515Z,33.19
2023-03-14T09:34:37.586Z,33.11
2023-03-14T09:37:06.972Z,33.20
2023-03-14T09:39:35.715Z,33.32
2023-03-14T09:42:08.455Z,33.23
2023-03-14T09:44:44.902Z,33.43
2023-03-14T09:47:16.451Z,33.29
2023-03-14T09:49:45.454Z,33.39
2023-03-14T09:52:19.064Z,33.35
2023-03-14T09:54:54.967Z,33.39
2023-03-14T09:57:26.823Z,33.35
2023-03-14T10:00:09.870Z,33.51
2023-03-14T10:02:39.398Z,33.51
2023-03-14T10:05:17.900Z,33.39
2023-03-14T10:07:46.957Z,33.32
2023-03-14T10:10:21.050Z,33.40
2023-03-14T10:12:58.342Z,33.27
2023-03-14T10:15:32.828Z,33.12
2023-03-14T10:18:06.154Z,33.10
2023-03-14T10:20:40.817Z,33.09
2023-03-14T10:23:26.139Z,33.12
2023-03-14T10:26:26.148Z,33.02
2023-03-14T10:29:03.540Z,32.96
2023-03-14T10:34:25.292Z,32.99
2023-03-14T10:37:08.534Z,32.94
2023-03-14T10:39:54.364Z,32.97
2023-03-14T10:42:36.026Z,32.74
2023-03-14T10:45:09.587Z,32.74
2023-03-14T10:47:50.033Z,32.85
2023-03-14T10:50:31.964Z,32.89
2023-03-14T10:53:07.886Z,32.80
2023-03-14T10:55:44.737Z,32.79
2023-03-14T10:58:24.343Z,32.84
2023-03-14T11:01:02.687Z,32.71
2023-03-14T11:03:36.026Z,32.51
2023-03-14T11:06:14.922Z,32.62
2023-03-14T11:09:09.694Z,32.68
2023-03-14T11:11:42.064Z,32.67
2023-03-14T11:14:34.354Z,32.73
2023-03-14T11:17:14.962Z,32.61
2023-03-14T11:19:43.992Z,32.67
2023-03-14T11:22:42.106Z,32.67
2023-03-14T11:25:22.015Z,32.67
2023-03-14T11:28:18.584Z,32.56
2023-03-14T11:31:01.046Z,32.62
2023-03-14T11:34:14.045Z,32.62
2023-03-14T11:37:30.439Z,32.54
2023-03-14T11:40:08.853Z,32.48
2023-03-14T11:42:38.160Z,32.25
2023-03-14T11:45:17.138Z,32.21
2023-03-14T11:47:50.652Z,32.23
2023-03-14T11:50:25.324Z,32.25
2023-03-14T11:53:05.904Z,32.29
2023-03-14T11:55:40.861Z,32.28
2023-03-14T11:58:19.021Z,32.12
2023-03-14T12:00:51.077Z,32.21
2023-03-14T12:03:32.567Z,32.23
2023-03-14T12:06:04.613Z,32.21
2023-03-14T12:08:50.046Z,32.01
2023-03-14T12:11:46.681Z,32.13
2023-03-14T12:14:28.775Z,32.06
2023-03-14T12:17:17.589Z,31.97
2023-03-14T12:19:49.001Z,31.83
2023-03-14T12:22:37.301Z,31.81
2023-03-14T12:25:17.173Z,31.78
2023-03-14T12:27:50.586Z,31.78
2023-03-14T12:30:43.635Z,31.66
2023-03-14T12:33:12.515Z,31.62
2023-03-14T12:35:51.329Z,31.64
2023-03-14T12:38:38.248Z,31.57
2023-03-14T12:41:37.575Z,31.44
2023-03-14T12:44:31.297Z,31.34
2023-03-14T12:47:17.045Z,31.29
2023-03-14T12:49:51.430Z,31.24
2023-03-14T12:52:47.347Z,31.08
2023-03-14T12:55:31.296Z,30.98
2023-03-14T12:58:00.227Z,30.92
2023-03-14T13:00:37.926Z,31.02
2023-03-14T13:03:29.953Z,30.96
2023-03-14T13:06:01.436Z,30.89
2023-03-14T13:08:40.549Z,30.83
2023-03-14T13:11:22.105Z,30.81
2023-03-14T13:13:58.377Z,30.65
2023-03-14T13:16:29.818Z,30.61
2023-03-14T13:19:25.664Z,30.54
2023-03-14T13:22:03.779Z,30.50
2023-03-14T13:24:36.819Z,30.45
2023-03-14T13:27:05.881Z,30.33
2023-03-14T13:29:35.055Z,30.15
2023-03-14T13:32:20.868Z,30.31
2023-03-14T13:34:50.629Z,30.20
2023-03-14T13:37:23.660Z,30.23
2023-03-14T13:39:54.438Z,30.18
2023-03-14T13:42:28.044Z,30.16
2023-03-14T13:44:58.980Z,30.09
2023-03-14T13:47:28.911Z,30.06
2023-03-14T13:49:58.037Z,30.07
2023-03-14T13:52:40.395Z,30.04
2023-03-14T13:55:17.986Z,30.10
2023-03-14T13:57:49.669Z,30.02
2023-03-14T14:00:29.686Z,29.95
2023-03-14T14:03:02.793Z,29.82
2023-03-14T14:05:33.956Z,29.85
2023-03-14T14:08:06.303Z,29.91
2023-03-14T14:10:38.279Z,29.93
2023-03-14T14:13:12.550Z,29.89
2023-03-14T14:15:49.196Z,29.79
2023-03-14T14:18:23.165Z,29.79
2023-03-14T14:20:52.493Z,29.80
2023-03-14T14:23:28.555Z,29.76
2023-03-14T14:25:59.783Z,29.72
2023-03-14T14:28:40.282Z,29.72
2023-03-14T14:31:24.885Z,29.58
2023-03-14T14:34:06.338Z,29.62
2023-03-14T14:36:54.017Z,29.58
2023-03-14T14:39:28.132Z,29.50
2023-03-14T14:41:57.380Z,29.42
2023-03-14T14:44:28.884Z,29.46
2023-03-14T14:47:00.900Z,29.44
2023-03-14T14:49:35.230Z,29.41
2023-03-14T14:52:18.231Z,29.38
2023-03-14T14:54:48.613Z,29.24
2023-03-14T14:57:29.079Z,29.21
2023-03-14T15:00:02.986Z,29.09
2023-03-14T15:02:47.339Z,29.06
2023-03-14T15:05:18.910Z,28.96
2023-03-14T15:07:48.530Z,28.90
2023-03-14T15:10:25.632Z,28.90
2023-03-14T15:12:54.856Z,28.82
2023-03-14T15:15:23.740Z,28.76
2023-03-14T15:17:52.986Z,28.74
2023-03-14T15:20:25.312Z,28.71
2023-03-14T15:22:54.662Z,28.66
2023-03-14T15:25:43.864Z,28.60
2023-03-14T15:28:30.469Z,28.65
2023-03-14T15:31:01.081Z,28.53
2023-03-14T15:33:30.872Z,28.47
2023-03-14T15:35:59.641Z,28.42
2023-03-14T15:38:28.604Z,28.42
2023-03-14T15:40:57.493Z,28.37
2023-03-14T15:43:26.405Z,28.21
2023-03-14T15:45:55.166Z,28.24
2023-03-14T15:48:24.909Z,28.21
2023-03-14T15:50:53.624Z,28.17
2023-03-14T15:53:22.455Z,28.10
2023-03-14T15:55:52.842Z,28.08
2023-03-14T15:58:22.665Z,28.10
2023-03-14T16:00:52.228Z,28.00
2023-03-14T16:03:21.297Z,27.98
2023-03-14T16:05:50.311Z,27.92
2023-03-14T16:08:19.086Z,27.81
2023-03-14T16:10:48.673Z,27.85
2023-03-14T16:13:17.898Z,27.86
2023-03-14T16:16:05.195Z,27.87
2023-03-14T16:18:36.446Z,27.76
2023-03-14T16:21:14.465Z,27.71
2023-03-14T16:23:43.831Z,27.67
2023-03-14T16:26:16.442Z,27.65
2023-03-14T16:28:46.753Z,27.55
2023-03-14T16:31:22.248Z,27.52
2023-03-14T16:33:51.466Z,27.47
2023-03-14T16:36:20.458Z,27.44
2023-03-14T16:38:50.631Z,27.39
2023-03-14T16:41:21.669Z,27.38
2023-03-14T16:43:53.195Z,27.36
2023-03-14T16:46:23.274Z,27.35
2023-03-14T16:48:52.641Z,27.26
2023-03-14T16:51:22.390Z,27.26
2023-03-14T16:53:51.884Z,27.25
2023-03-14T16:56:21.224Z,27.24
2023-03-14T16:58:52.233Z,27.16
2023-03-14T17:01:21.987Z,27.14
2023-03-14T17:03:53.071Z,27.14
2023-03-14T17:06:27.480Z,27.14
2023-03-14T17:08:58.706Z,27.06
2023-03-14T17:11:27.628Z,27.04
2023-03-14T17:13:56.436Z,27.02
2023-03-14T17:16:25.424Z,26.98
2023-03-14T17:18:54.211Z,26.95
2023-03-14T17:21:24.988Z,26.92
2023-03-14T17:23:54.123Z,26.87
2023-03-14T17:26:23.660Z,26.81
2023-03-14T17:28:52.968Z,26.80
2023-03-14T17:31:24.681Z,26.78
2023-03-14T17:33:54.175Z,26.81
2023-03-14T17:36:31.048Z,26.83
2023-03-14T17:39:00.336Z,26.81
2023-03-14T17:41:29.795Z,26.79
2023-03-14T17:43:58.993Z,26.77
2023-03-14T17:46:28.137Z,26.73
2023-03-14T17:48:57.090Z,26.69
2023-03-14T17:51:25.929Z,26.64
2023-03-14T17:53:54.871Z,26.64
2023-03-14T17:56:23.523Z,26.69
2023-03-14T17:58:53.371Z,26.67
2023-03-14T18:01:22.785Z,26.64
2023-03-14T18:03:57.181Z,26.61
2023-03-14T18:06:28.093Z,26.61
2023-03-14T18:08:57.848Z,26.58
2023-03-14T18:11:27.299Z,26.61
2023-03-14T18:13:56.229Z,26.60
2023-03-14T18:16:25.164Z,26.55
2023-03-14T18:18:54.924Z,26.53
2023-03-14T18:21:23.912Z,26.47
2023-03-14T18:23:52.678Z,26.42
2023-03-14T18:26:22.424Z,26.18
2023-03-14T18:28:51.580Z,26.15
2023-03-14T18:31:26.046Z,26.11
2023-03-14T18:33:57.882Z,25.99
2023-03-14T18:36:27.752Z,25.89
2023-03-14T18:38:57.559Z,25.90
2023-03-14T18:41:27.802Z,25.91
2023-03-14T18:43:56.697Z,25.85
2023-03-14T18:46:25.559Z,25.90
2023-03-14T18:48:57.755Z,25.87
2023-03-14T18:51:29.839Z,25.93
2023-03-14T18:54:09.984Z,25.91
2023-03-14T18:56:42.324Z,25.85
2023-03-14T18:59:15.273Z,25.83
2023-03-14T19:01:44.461Z,25.86
2023-03-14T19:04:13.403Z,25.78
2023-03-14T19:06:42.686Z,25.67
2023-03-14T19:09:16.228Z,25.72
2023-03-14T19:11:45.317Z,25.63
2023-03-14T19:14:16.806Z,25.62
2023-03-14T19:16:46.121Z,25.54
2023-03-14T19:19:15.470Z,25.55
2023-03-14T19:21:44.459Z,25.57
2023-03-14T19:24:19.488Z,25.59
2023-03-14T19:26:48.880Z,25.40
2023-03-14T19:29:18.252Z,25.42
2023-03-14T19:31:47.410Z,25.41
2023-03-14T19:34:16.158Z,25.32
2023-03-14T19:36:45.175Z,25.38
2023-03-14T19:39:13.949Z,25.26
2023-03-14T19:41:42.898Z,25.35
2023-03-14T19:44:14.212Z,25.26
2023-03-14T19:46:43.089Z,25.12
2023-03-14T19:49:12.381Z,25.16
2023-03-14T19:51:42.655Z,25.08
2023-03-14T19:54:11.641Z,25.14
2023-03-14T19:56:41.236Z,25.14
2023-03-14T19:59:10.402Z,25.12
2023-03-14T20:01:39.649Z,25.11
2023-03-14T20:04:08.859Z,25.08
2023-03-14T20:06:37.974Z,25.06
2023-03-14T20:09:06.968Z,24.98
2023-03-14T20:11:41.215Z,24.94
2023-03-14T20:14:10.992Z,24.97
2023-03-14T20:16:40.136Z,24.88
2023-03-14T20:19:11.327Z,24.86
2023-03-14T20:21:40.344Z,24.87
2023-03-14T20:24:09.311Z,24.86
2023-03-14T20:26:39.417Z,24.84
2023-03-14T20:29:08.559Z,24.86
2023-03-14T20:31:39.003Z,24.78
2023-03-14T20:34:08.194Z,24.82
2023-03-14T20:36:37.257Z,24.74
2023-03-14T20:39:06.628Z,24.80
2023-03-14T20:41:37.887Z,24.80
2023-03-14T20:44:09.851Z,24.75
2023-03-14T20:46:39.618Z,24.78
2023-03-14T20:49:08.622Z,24.74
2023-03-14T20:51:37.648Z,24.75
2023-03-14T20:54:08.421Z,24.75
2023-03-14T20:56:37.310Z,24.71
2023-03-14T20:59:06.285Z,24.71
2023-03-14T21:04:20.970Z,24.64
2023-03-14T21:06:49.767Z,24.65
2023-03-14T21:09:18.634Z,24.72
2023-03-14T21:11:48.149Z,24.66
2023-03-14T21:14:20.774Z,24.65
2023-03-14T21:16:50.044Z,24.74
2023-03-14T21:19:19.119Z,24.56
2023-03-14T21:21:48.291Z,24.52
2023-03-14T21:24:17.626Z,24.54
2023-03-14T21:26:47.624Z,24.55
2023-03-14T21:29:16.428Z,24.52
2023-03-14T21:31:45.527Z,24.46
2023-03-14T21:34:14.529Z,24.45
2023-03-14T21:36:43.726Z,24.31
2023-03-14T21:39:12.503Z,24.23
2023-03-14T21:41:41.417Z,24.23
2023-03-14T21:44:10.178Z,23.93
2023-03-14T21:46:39.152Z,23.98
2023-03-14T21:49:07.871Z,23.98
2023-03-14T21:51:36.985Z,23.96
2023-03-14T21:54:10.983Z,24.01
2023-03-14T21:56:40.181Z,23.97
2023-03-14T21:59:09.284Z,23.99
2023-03-14T22:01:38.298Z,23.92
2023-03-14T22:04:07.184Z,23.89
2023-03-14T22:06:36.114Z,23.78
2023-03-14T22:09:05.113Z,23.76
2023-03-14T22:11:34.086Z,23.66
2023-03-14T22:14:02.815Z,23.68
2023-03-14T22:16:31.848Z,23.67
2023-03-14T22:19:00.807Z,23.70
2023-03-14T22:21:29.688Z,23.66
2023-03-14T22:23:58.485Z,23.68
2023-03-14T22:26:27.457Z,23.72
2023-03-14T22:28:56.148Z,23.64
2023-03-14T22:31:25.388Z,23.74
2023-03-14T22:33:54.243Z,23.71
2023-03-14T22:36:23.281Z,23.72
2023-03-14T22:38:51.989Z,23.64
2023-03-14T22:41:20.958Z,23.63
2023-03-14T22:43:50.886Z,23.64
2023-03-14T22:46:19.929Z,23.52
2023-03-14T22:48:48.705Z,23.60
2023-03-14T22:51:17.699Z,23.58
2023-03-14T22:53:46.993Z,23.62
2023-03-14T22:56:15.936Z,23.46
2023-03-14T22:58:44.653Z,23.47
2023-03-14T23:01:14.610Z,23.47
2023-03-14T23:03:43.421Z,23.54
2023-03-14T23:06:12.483Z,23.53
2023-03-14T23:08:41.125Z,23.36
2023-03-14T23:11:10.371Z,23.50
2023-03-14T23:13:39.048Z,23.53
2023-03-14T23:16:09.139Z,23.57
2023-03-14T23:18:40.747Z,23.53
2023-03-14T23:21:13.162Z,23.56
2023-03-14T23:23:42.711Z,23.73
2023-03-14T23:26:12.771Z,23.62
2023-03-14T23:28:43.470Z,23.66
2023-03-14T23:31:15.363Z,23.65
2023-03-14T23:33:46.071Z,23.68
2023-03-14T23:36:16.614Z,23.61
2023-03-14T23:38:47.065Z,23.55
2023-03-14T23:41:16.663Z,23.45
2023-03-14T23:43:49.565Z,23.52
2023-03-14T23:46:18.575Z,23.45
2023-03-14T23:48:47.613Z,23.42
2023-03-14T23:51:17.621Z,23.43
2023-03-14T23:53:46.301Z,23.35
2023-03-14T23:56:16.488Z,23.28
2023-03-14T23:58:45.631Z,23.22
